Time;durP1;ratioP1;P1;durP2;ratioP2;P2;SDS_P1;SDS_P2;PMS_P1;PMS_P2;Temp;Humidity;BMP_temperature;BMP_pressure;BME280_temperature;BME280_humidity;BME280_pressure;Samples;Min_cycle;Max_cycle;Signal;HPM_P1;HPM_P2
2022/04/18 00:01:09;;;;;;;15.18;11.40;;;;;;;8.59;55.37;101976.81;5001249;28;20054;-79
2022/04/18 00:03:34;;;;;;;15.20;11.45;;;;;;;8.50;57.63;101973.75;5004204;28;20026;-79
2022/04/18 00:06:00;;;;;;;15.65;11.00;;;;;;;8.46;57.29;101972.72;5003655;28;20264;-79
2022/04/18 00:08:25;;;;;;;15.85;11.68;;;;;;;8.41;57.67;101971.53;5005364;28;20214;-81
2022/04/18 00:10:50;;;;;;;15.65;11.90;;;;;;;8.35;56.87;101971.25;5003144;28;20185;-81
2022/04/18 00:13:15;;;;;;;16.17;12.10;;;;;;;8.30;57.60;101967.53;5002916;28;20113;-81
2022/04/18 00:15:41;;;;;;;14.50;11.18;;;;;;;8.27;56.34;101962.16;5005812;28;20026;-81
2022/04/18 00:18:06;;;;;;;16.33;11.48;;;;;;;8.26;57.67;101963.88;5005098;28;20026;-81
2022/04/18 00:20:31;;;;;;;14.75;11.23;;;;;;;8.17;58.33;101959.09;5004619;28;20098;-81
2022/04/18 00:22:56;;;;;;;15.13;11.45;;;;;;;8.15;57.39;101959.84;5005777;28;20185;-81
2022/04/18 00:25:22;;;;;;;14.52;11.55;;;;;;;8.09;58.71;101962.13;5004026;28;20078;-81
2022/04/18 00:27:49;;;;;;;16.63;11.60;;;;;;;8.03;58.74;101956.63;5005446;28;20248;-81
2022/04/18 00:30:14;;;;;;;13.82;10.73;;;;;;;8.01;56.97;101962.63;5004425;28;20058;-81
2022/04/18 00:32:39;;;;;;;15.48;11.45;;;;;;;7.96;58.52;101960.59;5006350;28;20236;-81
2022/04/18 00:35:06;;;;;;;18.10;12.20;;;;;;;7.88;58.06;101961.88;5001162;28;20217;-81
2022/04/18 00:37:32;;;;;;;14.85;10.98;;;;;;;7.86;57.73;101963.50;5002975;28;20030;-81
2022/04/18 00:39:57;;;;;;;15.45;11.55;;;;;;;7.83;58.78;101961.66;5004100;28;20034;-81
2022/04/18 00:42:22;;;;;;;15.45;11.88;;;;;;;7.77;58.36;101959.63;5005339;28;20038;-80
2022/04/18 00:44:48;;;;;;;14.38;11.52;;;;;;;7.78;57.25;101961.41;5005544;28;20050;-81
2022/04/18 00:47:13;;;;;;;15.80;11.55;;;;;;;7.80;56.32;101959.78;5005050;28;20026;-81
2022/04/18 00:49:38;;;;;;;13.20;10.25;;;;;;;7.81;56.59;101956.38;5003497;28;20042;-81
2022/04/18 00:52:05;;;;;;;13.98;10.95;;;;;;;7.81;56.48;101958.09;5002532;28;20010;-81
2022/04/18 00:54:32;;;;;;;12.50;10.07;;;;;;;7.81;56.07;101958.09;5004288;28;20232;-81
2022/04/18 00:56:57;;;;;;;15.20;10.85;;;;;;;7.81;57.27;101955.50;5005031;28;20273;-81
2022/04/18 00:59:23;;;;;;;14.65;10.32;;;;;;;7.77;55.91;101953.53;5005238;28;20125;-81
2022/04/18 01:01:48;;;;;;;13.65;9.18;;;;;;;7.75;55.88;101947.38;5003952;28;20018;-81
2022/04/18 01:04:14;;;;;;;13.57;9.45;;;;;;;7.72;55.94;101961.09;5004506;28;20029;-81
2022/04/18 01:06:40;;;;;;;14.80;9.57;;;;;;;7.70;55.70;101952.31;5003717;28;20033;-81
2022/04/18 01:09:06;;;;;;;12.68;8.80;;;;;;;7.69;55.76;101947.06;5003212;28;20030;-81
2022/04/18 01:11:32;;;;;;;10.85;7.97;;;;;;;7.69;55.08;101954.84;5005489;28;20052;-81
2022/04/18 01:14:00;;;;;;;13.48;9.35;;;;;;;7.64;56.92;101945.09;5004448;28;20262;-80
2022/04/18 01:16:25;;;;;;;15.70;9.82;;;;;;;7.65;56.75;101946.00;5003348;28;20034;-80
2022/04/18 01:18:51;;;;;;;12.80;9.35;;;;;;;7.62;56.19;101943.25;5003638;28;20053;-81
2022/04/18 01:21:18;;;;;;;14.77;9.57;;;;;;;7.61;56.53;101937.16;5004276;28;20295;-81
2022/04/18 01:23:43;;;;;;;12.23;8.25;;;;;;;7.62;56.00;101938.94;4995114;28;20074;-81
2022/04/18 01:28:59;;;;;;;12.77;8.40;;;;;;;7.52;56.84;101940.94;5004836;28;20057;-81
2022/04/18 01:31:34;;;;;;;12.90;8.25;;;;;;;7.46;56.97;101938.94;5004464;28;20048;-81
2022/04/18 01:34:00;;;;;;;12.93;8.57;;;;;;;7.40;56.72;101942.09;5001082;28;20026;-81
2022/04/18 01:36:27;;;;;;;12.93;8.05;;;;;;;7.39;56.67;101945.50;5003819;28;20449;-81
2022/04/18 01:38:53;;;;;;;11.25;8.02;;;;;;;7.34;56.40;101936.56;5001076;28;20027;-81
2022/04/18 01:41:18;;;;;;;12.20;8.40;;;;;;;7.33;56.86;101939.97;5003232;28;20763;-81
2022/04/18 01:43:44;;;;;;;13.20;8.45;;;;;;;7.30;57.13;101939.81;5004639;28;20296;-81
2022/04/18 01:46:09;;;;;;;11.80;7.90;;;;;;;7.30;56.81;101952.78;5003090;28;20304;-81
2022/04/18 01:48:34;;;;;;;12.25;7.80;;;;;;;7.31;57.03;101936.41;4992314;28;20018;-81
2022/04/18 01:51:00;;;;;;;11.90;7.90;;;;;;;7.31;56.52;101939.00;5004191;28;20106;-81
2022/04/18 01:53:26;;;;;;;12.48;8.30;;;;;;;7.29;56.44;101941.50;5003713;28;20018;-81
2022/04/18 01:55:51;;;;;;;11.82;8.13;;;;;;;7.29;57.28;101936.31;5004747;28;20034;-81
2022/04/18 01:58:17;;;;;;;12.48;7.97;;;;;;;7.29;57.15;101940.63;5002019;28;20287;-81
2022/04/18 02:00:42;;;;;;;12.32;7.93;;;;;;;7.25;56.03;101928.28;5003666;28;20029;-81
2022/04/18 02:03:07;;;;;;;13.70;8.50;;;;;;;7.24;55.99;101932.59;5002378;28;20015;-81
2022/04/18 02:05:33;;;;;;;12.63;7.38;;;;;;;7.23;56.40;101933.41;5003063;28;20173;-81
2022/04/18 02:07:59;;;;;;;13.20;7.95;;;;;;;7.17;55.37;101924.38;5004058;28;20018;-81
2022/04/18 02:10:24;;;;;;;15.02;8.52;;;;;;;7.18;57.22;101918.41;5003597;28;20030;-81
2022/04/18 02:12:49;;;;;;;12.65;8.23;;;;;;;7.18;56.20;101918.41;5002133;28;20022;-81
2022/04/18 02:15:15;;;;;;;14.32;8.30;;;;;;;7.16;56.90;101920.91;5003762;28;20037;-81
2022/04/18 02:17:41;;;;;;;13.25;8.20;;;;;;;7.08;56.72;101915.31;5002967;28;20054;-81
2022/04/18 02:20:06;;;;;;;11.77;8.18;;;;;;;7.08;56.79;101925.69;5002901;28;20208;-81
2022/04/18 02:22:33;;;;;;;13.60;7.90;;;;;;;7.07;56.57;101921.28;5001957;28;20273;-81
2022/04/18 02:24:59;;;;;;;13.50;8.32;;;;;;;7.06;56.95;101918.63;4996436;28;20019;-81
2022/04/18 02:27:24;;;;;;;13.68;7.90;;;;;;;7.01;56.95;101910.59;5000946;28;20082;-81
2022/04/18 02:29:50;;;;;;;11.82;8.20;;;;;;;7.01;57.46;101917.47;4995885;28;20232;-81
2022/04/18 02:34:58;;;;;;;13.13;7.55;;;;;;;6.97;56.62;101914.69;5000675;28;20029;-80
2022/04/18 02:37:24;;;;;;;12.00;7.70;;;;;;;6.95;56.22;101912.81;5002836;28;20018;-81
2022/04/18 02:39:49;;;;;;;12.93;7.13;;;;;;;6.90;56.50;101909.09;5003138;28;20038;-81
2022/04/18 02:42:14;;;;;;;13.23;7.15;;;;;;;6.88;56.76;101909.03;4999346;28;20054;-80
2022/04/18 02:44:45;;;;;;;11.20;6.97;;;;;;;6.88;56.75;101910.69;5001847;28;20267;-81
2022/04/18 02:47:10;;;;;;;11.68;7.20;;;;;;;6.89;57.29;101909.91;5002140;28;20026;-80
2022/04/18 02:49:37;;;;;;;12.10;7.72;;;;;;;6.90;57.25;101902.22;5001641;28;20130;-80
2022/04/18 02:52:03;;;;;;;13.68;7.78;;;;;;;6.90;56.75;101902.22;5017028;28;20089;-81
2022/04/18 02:54:29;;;;;;;12.40;7.75;;;;;;;6.87;56.28;101893.41;5001384;28;20177;-80
2022/04/18 02:56:54;;;;;;;16.23;7.40;;;;;;;6.83;56.79;101897.50;4988081;28;20042;-81
2022/04/18 02:59:19;;;;;;;12.07;7.90;;;;;;;6.80;56.61;101892.16;5001503;28;20118;-81
2022/04/18 03:01:45;;;;;;;12.68;8.18;;;;;;;6.78;56.77;101888.59;5003131;28;20208;-81
2022/04/18 03:04:10;;;;;;;11.15;7.70;;;;;;;6.73;56.77;101885.72;5001806;28;20305;-81
2022/04/18 03:06:35;;;;;;;13.07;7.72;;;;;;;6.69;56.88;101876.03;5000930;28;20034;-81
2022/04/18 03:09:00;;;;;;;15.95;7.93;;;;;;;6.66;56.72;101870.63;4992311;28;20037;-81
2022/04/18 03:11:26;;;;;;;12.52;7.80;;;;;;;6.67;57.30;101876.75;5001876;28;20101;-81
2022/04/18 03:13:51;;;;;;;11.57;7.40;;;;;;;6.65;57.05;101874.06;5002350;28;20037;-80
2022/04/18 03:16:18;;;;;;;9.93;6.97;;;;;;;6.62;57.15;101871.31;4996149;28;20023;-81
2022/04/18 03:18:44;;;;;;;11.73;7.15;;;;;;;6.60;57.64;101873.81;4998951;28;20033;-81
2022/04/18 03:21:10;;;;;;;12.85;7.70;;;;;;;6.56;57.08;101874.44;5001388;28;20622;-81
2022/04/18 03:23:35;;;;;;;12.82;7.95;;;;;;;6.55;57.24;101877.81;5001046;28;20061;-80
2022/04/18 03:26:01;;;;;;;12.10;7.25;;;;;;;6.49;56.89;101874.91;5001973;28;20034;-81
2022/04/18 03:28:26;;;;;;;13.88;7.97;;;;;;;6.48;57.08;101869.63;4993492;28;20030;-80
2022/04/18 03:30:52;;;;;;;13.45;7.45;;;;;;;6.45;56.74;101870.34;5000743;28;20105;-80
2022/04/18 03:33:18;;;;;;;12.63;7.68;;;;;;;6.44;57.27;101869.47;5001224;28;20109;-80
2022/04/18 03:39:50;;;;;;;11.65;7.40;;;;;;;6.41;56.64;101876.16;5001300;28;20042;-80
2022/04/18 03:41:16;;;;;;;13.70;7.75;;;;;;;6.34;57.17;101877.47;5000112;28;20041;-80
2022/04/18 03:43:42;;;;;;;11.68;8.15;;;;;;;6.34;57.72;101886.94;5000984;28;20046;-80
2022/04/18 03:46:07;;;;;;;12.98;8.15;;;;;;;6.26;58.28;101887.41;5003059;28;20025;-80
2022/04/18 03:48:32;;;;;;;13.60;8.30;;;;;;;6.20;57.91;101884.47;5001274;28;20248;-80
2022/04/18 03:50:58;;;;;;;12.55;8.30;;;;;;;6.19;58.00;101884.38;5002285;28;20061;-80
2022/04/18 03:53:23;;;;;;;12.45;7.68;;;;;;;6.16;57.26;101881.63;5001212;28;20041;-80
2022/04/18 03:55:48;;;;;;;13.18;7.63;;;;;;;6.11;61.00;101880.44;5001002;28;20027;-80
2022/04/18 03:58:13;;;;;;;16.52;8.40;;;;;;;5.98;60.94;101878.81;5002119;28;20033;-79
2022/04/18 04:00:42;;;;;;;13.35;8.20;;;;;;;5.88;60.32;101869.59;5002263;28;20193;-80
2022/04/18 04:03:10;;;;;;;12.82;8.30;;;;;;;5.79;60.59;101879.41;4999482;28;20046;-80
2022/04/18 04:05:36;;;;;;;16.37;8.83;;;;;;;5.75;60.53;101876.63;4997765;28;20064;-80
2022/04/18 04:08:02;;;;;;;13.65;8.93;;;;;;;5.71;60.66;101871.19;4996770;28;20052;-80
2022/04/18 04:10:27;;;;;;;16.50;9.07;;;;;;;5.69;59.52;101876.28;5000340;28;20030;-80
2022/04/18 04:12:52;;;;;;;16.58;8.77;;;;;;;5.69;60.51;101876.28;5002041;28;20081;-80
2022/04/18 04:15:18;;;;;;;15.60;9.15;;;;;;;5.64;60.89;101880.25;4999947;28;20153;-80
2022/04/18 04:17:44;;;;;;;15.02;9.30;;;;;;;5.62;61.14;101876.72;5002236;28;20073;-80
2022/04/18 04:20:09;;;;;;;14.10;9.00;;;;;;;5.62;61.35;101878.38;4998977;28;20029;-80
2022/04/18 04:22:35;;;;;;;17.08;9.45;;;;;;;5.62;60.29;101879.28;5000947;28;20104;-80
2022/04/18 04:25:00;;;;;;;17.08;9.02;;;;;;;5.62;60.18;101863.78;5001043;28;20041;-80
2022/04/18 04:27:25;;;;;;;16.25;9.05;;;;;;;5.64;59.58;101864.75;5002427;28;20177;-80
2022/04/18 04:29:51;;;;;;;17.08;8.80;;;;;;;5.63;60.73;101868.13;5001012;28;20053;-81
2022/04/18 04:32:16;;;;;;;15.52;9.43;;;;;;;5.60;61.31;101873.13;5000723;28;20280;-81
2022/04/18 04:34:42;;;;;;;14.65;9.20;;;;;;;5.54;61.36;101865.88;5002357;28;20091;-80
2022/04/18 04:37:08;;;;;;;16.00;9.20;;;;;;;5.50;61.43;101874.25;5000493;28;20022;-80
2022/04/18 04:39:33;;;;;;;15.82;8.48;;;;;;;5.45;62.15;101873.09;4995999;28;20072;-81
2022/04/18 04:41:58;;;;;;;15.18;8.70;;;;;;;5.43;61.00;101874.69;5001797;28;20097;-80
2022/04/18 04:44:24;;;;;;;14.30;8.57;;;;;;;5.45;61.10;101872.22;5005389;28;20037;-80
2022/04/18 04:46:49;;;;;;;17.20;9.02;;;;;;;5.46;60.84;101884.31;5005376;28;20269;-80
2022/04/18 04:49:14;;;;;;;12.68;8.38;;;;;;;5.46;60.44;101879.13;5004712;28;20034;-80
2022/04/18 04:51:40;;;;;;;14.93;8.43;;;;;;;5.44;60.61;101873.00;5005529;28;20034;-80
2022/04/18 04:54:05;;;;;;;13.18;7.63;;;;;;;5.43;61.97;101884.13;5004860;28;20093;-80
2022/04/18 04:56:30;;;;;;;12.05;8.43;;;;;;;5.39;62.30;101883.06;5005112;28;20081;-80
2022/04/18 04:58:56;;;;;;;13.07;8.85;;;;;;;5.31;62.41;101881.69;5004889;28;20045;-80
2022/04/18 05:01:22;;;;;;;13.73;9.32;;;;;;;5.19;62.65;101880.13;5004456;28;20052;-80
2022/04/18 05:03:48;;;;;;;16.75;9.20;;;;;;;5.10;63.84;101881.22;5005441;28;20085;-80
2022/04/18 05:06:14;;;;;;;15.38;9.52;;;;;;;5.04;64.35;101877.50;5004119;28;20022;-80
2022/04/18 05:08:40;;;;;;;13.82;8.93;;;;;;;5.03;64.27;101879.97;5004823;28;20076;-80
2022/04/18 05:11:05;;;;;;;16.02;9.30;;;;;;;5.09;63.83;101882.94;5004228;28;20046;-80
2022/04/18 05:13:30;;;;;;;13.75;9.02;;;;;;;5.13;63.13;101884.03;5002424;28;20022;-80
2022/04/18 05:15:56;;;;;;;14.35;8.90;;;;;;;5.18;62.61;101890.38;5004820;28;20026;-80
2022/04/18 05:18:21;;;;;;;16.48;8.98;;;;;;;5.24;63.03;101888.16;5001979;28;20041;-80
2022/04/18 05:20:46;;;;;;;15.73;8.90;;;;;;;5.29;63.06;101885.88;5003595;28;20097;-81
2022/04/18 05:23:15;;;;;;;14.25;8.50;;;;;;;5.32;63.17;101883.47;5005115;28;20067;-80
2022/04/18 05:25:41;;;;;;;15.90;8.38;;;;;;;5.34;62.67;101880.16;4999989;28;20026;-80
2022/04/18 05:28:06;;;;;;;15.68;8.00;;;;;;;5.38;62.95;101881.25;5003250;28;20022;-80
2022/04/18 05:30:31;;;;;;;14.10;8.48;;;;;;;5.46;62.35;101886.91;5005049;28;20042;-80
2022/04/18 05:32:56;;;;;;;12.52;8.02;;;;;;;5.53;62.08;101891.63;5004761;28;20150;-80
2022/04/18 05:35:22;;;;;;;13.25;8.45;;;;;;;5.63;62.20;101893.09;5004534;28;20037;-81
2022/04/18 05:37:47;;;;;;;12.05;8.05;;;;;;;5.74;61.97;101887.78;5002435;28;20255;-81
2022/04/18 05:40:13;;;;;;;13.65;8.23;;;;;;;5.83;62.01;101892.59;5002755;28;20038;-80
2022/04/18 05:42:38;;;;;;;14.80;8.00;;;;;;;5.90;61.91;101889.56;5003695;28;20018;-80
2022/04/18 05:45:07;;;;;;;14.70;8.65;;;;;;;5.98;61.04;101897.84;5001410;28;20014;-81
2022/04/18 05:47:32;;;;;;;14.18;8.63;;;;;;;6.07;61.13;101892.31;4999523;28;20173;-80
2022/04/18 05:49:57;;;;;;;12.65;7.95;;;;;;;6.16;60.61;101887.66;5000124;28;20049;-80
2022/04/18 05:52:23;;;;;;;13.82;8.57;;;;;;;6.21;60.04;101896.63;5002727;28;20046;-81
2022/04/18 05:54:48;;;;;;;12.05;8.05;;;;;;;6.29;60.65;101896.16;4999285;28;20023;-81
2022/04/18 05:57:13;;;;;;;14.88;8.23;;;;;;;6.34;61.02;101893.00;5003611;28;20030;-81
2022/04/18 05:59:38;;;;;;;13.73;8.70;;;;;;;6.39;60.24;101896.78;5003502;28;20029;-81
2022/04/18 06:02:04;;;;;;;16.90;8.65;;;;;;;6.43;60.43;101885.78;5003725;28;20053;-81
2022/04/18 06:04:29;;;;;;;13.95;8.30;;;;;;;6.51;61.03;101890.50;4998061;28;20026;-81
2022/04/18 06:06:55;;;;;;;11.48;7.70;;;;;;;6.57;60.25;101893.44;5003323;28;20026;-81
2022/04/18 06:09:20;;;;;;;13.48;7.70;;;;;;;6.66;59.83;101898.25;5004009;28;20281;-81
2022/04/18 06:11:46;;;;;;;13.63;8.60;;;;;;;6.73;59.82;101892.59;5002715;28;20064;-81
2022/04/18 06:14:11;;;;;;;13.68;8.75;;;;;;;6.82;59.35;101892.22;4999798;28;20015;-81
2022/04/18 06:16:36;;;;;;;13.60;8.88;;;;;;;6.90;58.64;101888.38;5002451;28;20335;-81
2022/04/18 06:19:01;;;;;;;14.45;8.85;;;;;;;7.00;58.37;101889.78;5001731;28;20022;-81
2022/04/18 06:21:27;;;;;;;14.60;9.45;;;;;;;7.08;58.45;101896.25;5001568;28;20038;-81
2022/04/18 06:23:52;;;;;;;14.63;9.32;;;;;;;7.18;57.52;101906.31;5002328;28;20229;-81
2022/04/18 06:26:18;;;;;;;14.35;9.60;;;;;;;7.28;57.40;101902.53;5003055;28;20022;-81
2022/04/18 06:28:43;;;;;;;13.10;8.30;;;;;;;7.39;56.73;101897.94;5003283;28;20284;-81
2022/04/18 06:31:08;;;;;;;12.02;8.25;;;;;;;7.51;56.63;101903.75;5002742;28;20026;-81
2022/04/18 06:33:34;;;;;;;14.40;8.55;;;;;;;7.64;55.61;101893.22;5002815;28;20093;-81
2022/04/18 06:36:01;;;;;;;13.38;8.85;;;;;;;8.42;55.05;101892.81;5001810;28;20023;-81
2022/04/18 06:38:28;;;;;;;12.23;8.07;;;;;;;11.84;47.29;101895.09;5002580;28;20029;-81
2022/04/18 06:40:54;;;;;;;12.30;7.70;;;;;;;15.17;38.86;101889.75;5002375;28;20022;-81
2022/04/18 06:43:20;;;;;;;10.77;7.40;;;;;;;17.59;33.96;101884.97;5002241;28;20030;-81
2022/04/18 06:45:45;;;;;;;12.68;8.45;;;;;;;19.44;30.68;101879.34;5002793;28;20029;-81
2022/04/18 06:48:10;;;;;;;12.55;7.40;;;;;;;20.81;28.60;101870.66;5002999;28;20081;-82
2022/04/18 06:50:36;;;;;;;13.82;7.47;;;;;;;21.96;27.03;101868.34;4999011;28;20324;-82
2022/04/18 06:53:01;;;;;;;10.82;7.75;;;;;;;22.20;26.17;101875.25;5001384;28;20164;-82
2022/04/18 06:55:26;;;;;;;13.68;8.50;;;;;;;20.38;28.40;101875.06;5003009;28;20026;-82
2022/04/18 06:57:51;;;;;;;13.30;8.13;;;;;;;18.62;30.21;101871.84;5002881;28;20105;-82
2022/04/18 07:00:17;;;;;;;15.65;8.80;;;;;;;17.11;32.33;101879.13;5002122;28;20067;-82
2022/04/18 07:02:46;;;;;;;12.82;8.43;;;;;;;15.82;34.29;101887.56;5002582;28;20018;-83
2022/04/18 07:05:11;;;;;;;;;;;;;;;15.13;38.50;101888.78;5001244;28;20118;-83
2022/04/18 07:07:36;;;;;;;12.80;7.50;;;;;;;14.24;36.86;101882.31;4997995;28;19914;-82
2022/04/18 07:10:02;;;;;;;13.50;7.70;;;;;;;13.66;38.88;101879.94;5002062;28;20352;-82
2022/04/18 07:12:28;;;;;;;14.02;8.52;;;;;;;13.24;39.15;101888.31;5001639;28;20284;-82
2022/04/18 07:14:55;;;;;;;13.52;8.25;;;;;;;12.94;40.42;101885.66;5002044;28;20022;-82
2022/04/18 07:17:20;;;;;;;13.90;8.13;;;;;;;12.75;40.55;101877.22;5003321;28;20033;-82
2022/04/18 07:19:45;;;;;;;12.70;8.07;;;;;;;12.60;40.75;101877.66;5001128;28;20023;-82
2022/04/18 07:22:11;;;;;;;12.93;7.07;;;;;;;12.50;41.40;101886.03;5001838;28;20050;-82
2022/04/18 07:24:36;;;;;;;12.80;7.43;;;;;;;12.41;40.77;101875.25;5000815;28;20117;-82
2022/04/18 07:27:01;;;;;;;14.20;7.20;;;;;;;12.40;41.62;101882.22;5002134;28;20022;-82
2022/04/18 07:29:30;;;;;;;11.43;7.32;;;;;;;12.37;41.57;101886.44;5001484;28;20082;-83
2022/04/18 07:31:55;;;;;;;11.38;7.70;;;;;;;12.39;42.09;101874.34;5002480;28;20054;-83
2022/04/18 07:34:20;;;;;;;14.23;7.40;;;;;;;12.39;41.00;101874.34;4995552;28;20037;-83
2022/04/18 07:36:46;;;;;;;12.88;7.45;;;;;;;12.40;40.83;101874.38;5000962;28;20101;-82
2022/04/18 07:39:11;;;;;;;12.38;7.00;;;;;;;12.43;41.32;101873.59;5001553;28;20026;-82
2022/04/18 07:41:37;;;;;;;15.40;7.82;;;;;;;12.47;42.14;101876.34;5001726;28;20268;-82
2022/04/18 07:44:03;;;;;;;12.93;7.50;;;;;;;12.48;40.37;101866.78;5002185;28;20030;-82
2022/04/18 07:46:29;;;;;;;11.65;7.20;;;;;;;12.53;40.56;101862.59;5002666;28;20030;-82
2022/04/18 07:48:55;;;;;;;12.10;7.22;;;;;;;12.60;41.76;101867.19;5001162;28;20025;-82
2022/04/18 07:51:38;;;;;;;11.48;7.13;;;;;;;12.67;41.71;101858.69;5001245;28;20046;-82
2022/04/18 07:54:08;;;;;;;11.57;6.90;;;;;;;12.75;39.86;101858.03;5002581;28;20038;-82
2022/04/18 07:56:33;;;;;;;13.43;7.53;;;;;;;12.81;40.08;101861.72;5001648;28;20029;-82
2022/04/18 07:58:59;;;;;;;13.77;8.30;;;;;;;12.89;39.90;101856.75;5002791;28;20173;-83
2022/04/18 08:01:25;;;;;;;14.15;7.82;;;;;;;12.97;40.55;101860.47;5002676;28;20300;-82
2022/04/18 08:03:50;;;;;;;11.10;7.43;;;;;;;13.02;39.71;101856.25;5002683;28;20027;-82
2022/04/18 08:06:16;;;;;;;12.57;7.30;;;;;;;13.12;40.19;101853.91;5000450;28;20273;-82
2022/04/18 08:08:42;;;;;;;12.70;6.88;;;;;;;13.20;36.92;101860.25;5001386;28;20026;-83
2022/04/18 08:11:11;;;;;;;11.35;6.72;;;;;;;13.29;38.00;101863.13;4999790;28;20042;-83
2022/04/18 08:13:38;;;;;;;10.02;6.32;;;;;;;13.35;37.42;101855.50;5000188;28;20038;-82
2022/04/18 08:16:03;;;;;;;9.55;6.55;;;;;;;13.41;37.70;101861.75;4998901;28;20037;-83
2022/04/18 08:18:30;;;;;;;8.88;5.60;;;;;;;13.45;37.74;101853.13;5001885;28;20026;-83
2022/04/18 08:20:55;;;;;;;11.93;5.82;;;;;;;13.52;38.12;101857.72;5003896;28;20149;-83
2022/04/18 08:23:21;;;;;;;10.02;6.00;;;;;;;13.61;37.97;101855.31;5006197;28;20049;-83
2022/04/18 08:25:46;;;;;;;9.88;6.22;;;;;;;13.70;36.21;101860.84;5006475;28;20054;-82
2022/04/18 08:28:11;;;;;;;10.55;6.25;;;;;;;13.79;36.79;101860.19;5005278;28;20283;-82
2022/04/18 08:30:36;;;;;;;9.73;6.13;;;;;;;13.91;37.58;101864.88;5006637;28;20030;-82
2022/04/18 08:33:02;;;;;;;9.93;6.07;;;;;;;13.99;36.45;101871.19;5006705;28;20080;-83
2022/04/18 08:35:27;;;;;;;9.13;6.18;;;;;;;14.04;36.47;101859.09;5006308;28;20045;-83
2022/04/18 08:37:53;;;;;;;9.90;6.18;;;;;;;14.09;37.63;101861.81;5006381;28;20094;-83
2022/04/18 08:40:20;;;;;;;10.98;6.80;;;;;;;14.16;36.72;101857.63;5005885;28;20126;-83
2022/04/18 08:42:45;;;;;;;10.05;6.72;;;;;;;14.20;36.42;101857.75;5002098;28;20066;-82
2022/04/18 08:45:13;;;;;;;14.30;7.05;;;;;;;14.24;36.88;101858.72;5001989;28;20042;-85
2022/04/18 08:53:13;;;;;;;10.80;6.57;;;;;;;14.37;37.25;101858.16;5002048;28;20190;-88
2022/04/18 08:55:40;;;;;;;9.70;6.03;;;;;;;14.46;37.02;101861.88;5001141;28;20034;-86
2022/04/18 08:58:05;;;;;;;10.40;6.40;;;;;;;14.58;37.31;101862.13;4997510;28;20019;-80
2022/04/18 09:00:31;;;;;;;9.85;6.35;;;;;;;14.70;37.60;101861.56;5003524;28;20038;-81
2022/04/18 09:02:56;;;;;;;10.80;6.63;;;;;;;14.76;36.80;101852.13;5001424;28;20306;-79
2022/04/18 09:05:22;;;;;;;9.63;6.10;;;;;;;14.80;35.36;101852.19;5000014;28;20157;-78
2022/04/18 09:08:01;;;;;;;11.98;5.70;;;;;;;14.89;38.26;101853.28;4999801;28;20046;-79
2022/04/18 09:10:27;;;;;;;12.63;5.25;;;;;;;14.98;35.61;101855.22;5001005;28;20264;-86
2022/04/18 09:12:53;;;;;;;9.23;5.30;;;;;;;15.11;37.47;101845.88;5003524;28;20030;-86
2022/04/18 09:15:35;;;;;;;10.60;5.45;;;;;;;15.17;35.77;101856.47;5000893;28;20376;-86
2022/04/18 09:18:19;;;;;;;9.45;5.50;;;;;;;15.21;35.54;101852.19;5000220;28;20046;-86
2022/04/18 09:20:48;;;;;;;8.48;5.10;;;;;;;15.27;34.38;101860.19;4999432;28;20085;-86
2022/04/18 09:23:28;;;;;;;9.70;5.07;;;;;;;15.34;34.45;101850.69;5002032;28;20038;-86
2022/04/18 09:25:59;;;;;;;13.40;7.22;;;;;;;15.39;35.11;101844.66;5002160;28;20269;-85
2022/04/18 09:28:33;;;;;;;25.50;12.63;;;;;;;15.45;35.74;101847.44;4999978;28;20030;-83
2022/04/18 09:31:07;;;;;;;9.35;5.35;;;;;;;15.51;34.85;101849.31;4996651;28;20105;-85
2022/04/18 09:33:43;;;;;;;10.25;4.68;;;;;;;15.60;34.56;101852.09;4988823;28;20033;-86
2022/04/18 09:36:12;;;;;;;8.38;4.50;;;;;;;15.69;32.71;101843.50;4990368;28;20030;-86
2022/04/18 09:38:47;;;;;;;9.32;4.70;;;;;;;15.74;33.15;101841.84;4990197;28;20135;-86
2022/04/18 09:41:14;;;;;;;9.18;5.18;;;;;;;15.83;34.59;101841.16;4989797;28;20497;-88
2022/04/18 09:43:42;;;;;;;9.93;5.30;;;;;;;15.86;33.65;101829.81;4989881;28;20038;-89
2022/04/18 09:46:08;;;;;;;9.45;5.10;;;;;;;15.93;32.24;101839.56;4990719;28;20045;-90
2022/04/18 09:48:34;;;;;;;8.55;5.10;;;;;;;15.95;31.30;101837.88;4990246;28;20052;-84
2022/04/18 09:50:59;;;;;;;20.92;13.27;;;;;;;16.01;32.51;101829.19;4989218;28;20482;-85
2022/04/18 09:53:26;;;;;;;15.88;6.20;;;;;;;16.06;31.80;101827.50;4990512;28;20169;-83
2022/04/18 09:55:55;;;;;;;10.25;5.80;;;;;;;16.10;33.06;101829.34;4988186;28;20026;-85
2022/04/18 09:58:21;;;;;;;8.80;4.40;;;;;;;16.12;31.46;101828.50;4991329;28;20144;-86
2022/04/18 10:00:49;;;;;;;8.88;4.78;;;;;;;16.17;32.86;101815.44;4992218;28;20029;-86
2022/04/18 10:03:14;;;;;;;11.73;5.47;;;;;;;16.19;30.69;101813.69;4991706;28;20034;-87
2022/04/18 10:05:41;;;;;;;10.27;5.95;;;;;;;16.21;29.22;101813.75;4986906;28;20548;-86
2022/04/18 10:08:06;;;;;;;9.82;5.38;;;;;;;16.25;30.17;101816.44;4989408;28;20503;-85
2022/04/18 10:10:41;;;;;;;10.95;5.10;;;;;;;16.31;31.07;101808.66;4991419;28;20061;-88
2022/04/18 10:13:09;;;;;;;8.43;5.10;;;;;;;16.36;31.78;101816.59;4985594;28;20033;-90
2022/04/18 10:15:39;;;;;;;9.23;5.28;;;;;;;16.35;29.81;101812.19;4990483;28;20030;-88
2022/04/18 10:18:06;;;;;;;9.00;4.88;;;;;;;16.39;29.31;101806.13;4985144;28;20105;-81
2022/04/18 10:20:49;;;;;;;10.50;5.53;;;;;;;16.44;30.12;101809.72;4986616;28;20022;-79
2022/04/18 10:23:51;;;;;;;9.80;5.55;;;;;;;16.49;31.65;101802.78;4990771;28;20042;-82
2022/04/18 10:26:38;;;;;;;9.90;5.30;;;;;;;16.58;31.12;101802.00;4987668;28;20034;-81
2022/04/18 10:29:09;;;;;;;9.88;5.40;;;;;;;16.61;29.81;101801.19;4987616;28;20462;-84
2022/04/18 10:31:39;;;;;;;83.00;39.63;;;;;;;16.62;29.58;101797.69;4993882;28;20069;-83
2022/04/18 10:34:05;;;;;;;53.55;35.47;;;;;;;16.67;31.57;101796.03;4998735;28;20287;-83
2022/04/18 10:36:32;;;;;;;10.50;5.93;;;;;;;16.69;29.05;101794.28;4999047;28;20042;-81
2022/04/18 10:39:05;;;;;;;10.93;5.60;;;;;;;16.73;29.80;101796.09;5002636;28;20049;-81
2022/04/18 10:41:38;;;;;;;10.90;6.03;;;;;;;16.78;29.07;101793.53;5000431;28;20085;-83
2022/04/18 10:44:10;;;;;;;8.60;5.30;;;;;;;16.87;30.87;101785.72;5001231;28;20022;-80
2022/04/18 10:46:37;;;;;;;8.98;5.50;;;;;;;16.95;31.01;101789.38;5000212;28;20284;-84
2022/04/18 10:49:04;;;;;;;8.80;5.68;;;;;;;17.04;30.76;101783.34;5000510;28;20034;-82
2022/04/18 10:51:34;;;;;;;7.90;5.97;;;;;;;17.13;29.81;101783.47;4999482;28;20448;-83
2022/04/18 10:54:30;;;;;;;10.25;6.00;;;;;;;17.20;32.48;101782.66;5002297;28;20032;-85
2022/04/18 10:57:11;;;;;;;9.30;5.97;;;;;;;17.35;32.66;101786.31;4995547;28;20042;-84
2022/04/18 10:59:45;;;;;;;9.70;6.30;;;;;;;17.37;30.93;101769.66;5000622;28;20180;-84
2022/04/18 11:02:37;;;;;;;9.88;6.07;;;;;;;17.42;32.07;101769.72;4999762;28;20406;-83
2022/04/18 11:05:03;;;;;;;53.00;29.08;;;;;;;17.44;29.03;101770.63;4999761;28;20022;-85
2022/04/18 11:07:42;;;;;;;31.08;19.08;;;;;;;17.49;32.06;101763.63;5000513;28;20032;-85
2022/04/18 11:10:18;;;;;;;10.32;6.47;;;;;;;17.50;30.61;101768.03;4989687;28;20022;-84
2022/04/18 11:12:44;;;;;;;12.10;6.43;;;;;;;17.55;29.45;101763.72;5000445;28;20030;-86
2022/04/18 11:15:09;;;;;;;8.45;5.90;;;;;;;17.56;29.39;101757.56;4999172;28;20022;-84
2022/04/18 11:17:39;;;;;;;9.77;6.22;;;;;;;17.58;30.42;101762.84;5000052;28;20053;-81
2022/04/18 11:20:30;;;;;;;10.02;6.53;;;;;;;17.60;29.93;101765.47;5000048;28;20030;-83
2022/04/18 11:23:18;;;;;;;9.85;6.20;;;;;;;17.66;31.75;101760.28;4999587;28;20038;-79
2022/04/18 11:25:58;;;;;;;9.80;6.47;;;;;;;17.70;31.71;101751.53;4998760;28;20093;-81
2022/04/18 11:28:32;;;;;;;10.95;5.68;;;;;;;17.75;29.04;101747.19;4998636;28;20034;-80
2022/04/18 11:30:57;;;;;;;8.63;5.43;;;;;;;17.79;26.94;101751.63;5000334;28;20026;-80
2022/04/18 11:33:22;;;;;;;10.10;5.50;;;;;;;17.80;28.35;101758.66;5000617;28;20174;-80
2022/04/18 11:35:48;;;;;;;9.70;5.60;;;;;;;17.84;27.58;101747.28;4999803;28;20030;-79